Nemanja Dimitrijevic

Recruteur - Partizan
8 Janv 2028
Samedi
Processus

Personnalité

Adaptabilité (9) Ambition (14) Controverse (17) Loyauté (9) Pression (2) Professionnalisme (6) Sportivité (5) Tempérament (12)

Profil

Style d'entraînement Démocratique
Diplôme Continental Pro
Détermination 9
Gestion des joueurs 12
Motivation 13
Discipline 14
Satisfaction professionnelle
25%
Fatigue
0%
Rôle Recruteur
Salaire 28.2K p/s
Contrat 14.03.2029

Performance

Comportement Bon
Efficacité de l'entraînement
15%
Développement des joueurs
30%
Prévention des blessures
70%
Mise en place tactique
70%

Événements récents

A participé à une réunion de recrutement maintenant
A participé à une réunion de recrutement 7j
A recommandé une cible de transfert 7j
A évalué un joueur 7j
A évalué un joueur 7j
A évalué un joueur 7j
A évalué un joueur 7j
A présenté un dossier au conseil 7j

Suivi en cours

151
Joueur Club Statut Capacité Confiance Observé Dernière observation Dernier vote
Brandon Cambridge Cukaricki Actif 100 / 96 86% 1 02.01.2028 Approuver
Kufre Eta Vojvodina Négociation 104 / 100 86% 1 01.01.2028 -
Francis Amuzu Grêmio Actif 134 / 132 40% 1 31.12.2027 -
Benjamín Rollheiser Santos Actif 134 / 134 40% 1 31.12.2027 -
Wilson Odobert Norwich City Actif 150 / 134 40% 1 31.12.2027 -
Felipe Zenobio Tigre Actif 131 / 146 40% 6 30.12.2027 -
Angus Gunn San Jose Earthquakes Actif 129 / 129 40% 5 30.12.2027 -
Iván Arboleda Sarmiento Actif 121 / 134 40% 4 30.12.2027 -
Igor Nikić Lech Actif 126 / 132 40% 8 29.12.2027 -
Albert Posiadała Molde Actif 132 / 119 40% 4 29.12.2027 -
Patrick Schulte Columbus Crew Actif 129 / 134 40% 7 29.12.2027 -
Lucas Acosta Aldosivi Actif 121 / 121 40% 5 28.12.2027 -
Tomás Marchiori Vélez Actif 132 / 121 40% 5 28.12.2027 -
Léo Jardim Vasco da Gama Actif 138 / 155 40% 4 28.12.2027 -
Carl Rushworth Coventry City Actif 148 / 155 40% 6 27.12.2027 -
José Devecchi San Lorenzo Actif 126 / 139 40% 7 27.12.2027 -
Giorgi Mamardashvili Sunderland Actif 169 / 176 40% 1 27.12.2027 -
Gabriel Batista Botafogo Actif 131 / 120 40% 6 24.12.2027 -
Mauro Silveira Junior Actif 131 / 114 40% 6 23.12.2027 -
Lucas Arcanjo Vitória Actif 126 / 139 40% 5 23.12.2027 -
Arijanet Murić Sassuolo Actif 148 / 127 40% 10 20.12.2027 -
Josh Keeley Luton Town Actif 138 / 126 40% 2 20.12.2027 -
Predrag Rajković Al-Nassr Actif 149 / 144 40% 8 20.12.2027 -
Bento Lokomotiv Moscow Actif 143 / 152 40% 2 19.12.2027 -
Željko Samčović Mladost Lucani Actif 126 / 123 40% 3 19.12.2027 -
Aaron Ramsdale Southampton Actif 156 / 168 40% 2 17.12.2027 -
Cristopher Varela Deportivo La Guaira Actif 122 / 139 40% 5 17.12.2027 -
Lukáš Horníček Burnley Actif 155 / 169 40% 3 16.12.2027 -
Drake Callender Minnesota United FC Actif 124 / 124 40% 7 16.12.2027 -
Matt Freese New York City Actif 132 / 149 40% 5 14.12.2027 -
Sebastián Meza Huracán Actif 126 / 140 40% 2 14.12.2027 -
Dayne St. Clair Inter Miami CF Actif 129 / 126 40% 5 13.12.2027 -
Tomás Durso Atlético Tucumán Actif 126 / 142 40% 2 13.12.2027 -
Gabriel Brazão Santos Actif 137 / 121 40% 6 10.12.2027 -
Elis Bishesari IFK Goteborg Actif 130 / 115 40% 3 08.12.2027 -
Lucas Bruera Carabobo Actif 123 / 132 40% 3 07.12.2027 -
Roman Celentano FC Cincinnati Actif 126 / 133 40% 6 07.12.2027 -
Zack Steffen Colorado Rapids Actif 138 / 127 40% 6 05.12.2027 -
Nelson Insfrán Gimnasia La Plata Actif 120 / 140 40% 5 02.12.2027 -
Oliver Petersen Helsingborg Actif 126 / 140 40% 1 02.12.2027 -
Christian Walton Norwich City Actif 134 / 148 40% 2 01.12.2027 -
Leopold Wahlstedt Rosenborg Actif 122 / 132 40% 5 01.12.2027 -
Theo Sander IF Elfsborg Actif 120 / 125 40% 4 29.11.2027 -
Facundo Cambeses Racing Club Actif 129 / 118 40% 8 28.11.2027 -
Vanja Milinković-Savić Napoli Actif 152 / 164 40% 5 26.11.2027 -
Hugo Souza Corinthians Actif 141 / 151 40% 6 25.11.2027 -
Nikola Krstić IMT Actif 111 / 114 42% 1 / 1m 24.11.2027 -
Đorđe Petrović Bournemouth Actif 150 / 148 40% 3 23.11.2027 -
Anthony Patterson Wrexham Actif 142 / 149 40% 6 21.11.2027 -
Manuel Roffo Hajduk Split Actif 134 / 138 40% 1 21.11.2027 -
Diego Enríquez Sporting Cristal Actif 138 / 147 40% 1 18.11.2027 -
Carlos Miguel Palmeiras Actif 130 / 129 40% 3 01.11.2027 -
Bart Verbruggen Newcastle United Actif 159 / 148 40% 2 25.10.2027 -
Abduvohid Ne'matov Nasaf Actif 128 / 144 40% 1 17.10.2027 -
Kostantis Tzolakis Hull City Actif 153 / 150 40% 8 23.09.2027 -
Alex Meret Napoli Actif 155 / 150 40% 1 13.08.2027 -
Filip Stanković Venezia Actif 134 / 141 40% 1 13.08.2027 -
Wladimiro Falcone Lecce Actif 145 / 152 40% 5 04.08.2027 -
Nicolas Schmid Portsmouth Actif 132 / 145 40% 7 04.08.2027 -
Joe Lumley Sheffield Wednesday Actif 121 / 103 40% 6 04.08.2027 -
Michael Cooper Sheffield United Actif 137 / 151 40% 12 02.08.2027 -
Fran Vieites Exeter City Actif 121 / 126 40% 4 02.08.2027 -
Lukas Jensen Millwall Actif 129 / 113 40% 6 02.08.2027 -
Alex Palmer Ipswich Town Actif 133 / 139 40% 1 28.07.2027 -
Max O'Leary West Bromwich Albion Actif 128 / 114 40% 6 25.07.2027 -
Maduka Okoye Udinese Actif 146 / 161 40% 3 22.07.2027 -
Jacob Widell Zetterström Derby County Actif 138 / 142 40% 8 21.07.2027 -
James Trafford Leeds United Actif 144 / 139 40% 6 21.07.2027 -
Egil Selvik Watford Actif 129 / 125 40% 6 20.07.2027 -
Simone Scuffet Pisa Actif 136 / 143 40% 3 20.07.2027 -
Daniel Iversen Preston Actif 132 / 126 40% 5 20.07.2027 -
Christos Mouzakitis Hull City Actif 137 / 127 40% 1 06.07.2027 -
Helinho Toluca Actif 134 / 116 40% 1 06.07.2027 -
Luca Langoni New England Revolution Actif 138 / 131 40% 2 21.06.2027 -
Rafael Navarro St. Louis CITY SC Actif 129 / 125 40% 1 21.06.2027 -
Bertrand Traoré Sunderland Actif 130 / 146 40% 1 15.06.2027 -
Mathias Pereira Lage St. Pauli Actif 133 / 116 40% 1 15.06.2027 -
Savo Rašković Radnik Surdulica Actif 100 / 105 83% 1 02.06.2027 Approuver
Kenny Tete Fulham Actif 142 / 129 40% 1 31.05.2027 -
Gustavo Hamer Sheffield United Actif 135 / 145 40% 1 31.05.2027 -
Carlos Vicente Udinese Actif 140 / 129 40% 1 31.05.2027 -
Gianmarco Vannucchi Benevento Actif 123 / 128 40% 2 30.05.2027 -
Viktor Johansson Stoke City Actif 139 / 121 40% 3 27.05.2027 -
Alessio Cragno Südtirol Actif 130 / 137 40% 3 25.05.2027 -
Nathan Trott Cardiff City Actif 125 / 135 40% 5 20.05.2027 -
John Victor Nottingham Forest Actif 130 / 135 40% 6 14.05.2027 -
Radek Vítek Middlesbrough Actif 138 / 135 40% 3 11.05.2027 -
Đorđe Nikolić Cukaricki Actif 115 / 103 40% 4 06.05.2027 -
George Wickens Lincoln City Actif 113 / 106 40% 6 02.05.2027 -
Alen Sherri Cagliari Actif 116 / 137 40% 1 01.05.2027 -
Vladan Kovačević Norwich City Actif 116 / 130 40% 1 25.04.2027 -
Riccardo Gagno Vicenza Actif 118 / 133 40% 2 24.04.2027 -
Sławomir Abramowicz Jagiellonia Actif 127 / 138 40% 1 21.04.2027 -
Ruslan Neshcheret Dynamo Kyiv Actif 123 / 115 40% 3 09.04.2027 -
Bruno Varela Al-Hazem Actif 122 / 139 40% 1 04.03.2027 -
Grégoire Coudert Burnley Actif 130 / 147 40% 2 03.03.2027 -
Matouš Trmal Teplice Actif 116 / 119 40% 1 25.02.2027 -
Sipho Chaine Orlando Pirates Actif 124 / 104 40% 1 18.02.2027 -
Petar Stanić Ludogorets Actif 135 / 123 40% 4 28.12.2026 -
Pablo Solari Spartak Moscow Actif 133 / 120 40% 4 28.12.2026 -
Galeno Al-Ahli Actif 141 / 160 40% 2 27.12.2026 -
Joe Aribo Southampton Actif 121 / 115 40% 1 26.12.2026 -
Andre Brooks Sheffield United Actif 131 / 114 40% 1 24.12.2026 -
Iqraam Rayners Mamelodi Sundowns Actif 134 / 123 40% 3 21.12.2026 -
Mërgim Vojvoda Udinese Actif 140 / 124 40% 2 21.12.2026 -
Serginho Al Wasl Actif 137 / 138 40% 1 20.12.2026 -
Hélio Varela Maccabi Tel Aviv Actif 125 / 129 40% 1 20.12.2026 -
Oussama Idrissi Ferencvaros Actif 145 / 142 40% 5 18.12.2026 -
Hidemasa Morita Hull City Actif 140 / 140 40% 1 18.12.2026 -
Domagoj Drožđek Tractor Actif 123 / 113 40% 2 16.12.2026 -
Jason Knight Bristol City Actif 123 / 130 40% 1 12.12.2026 -
Christian Nørgaard Everton Actif 154 / 131 40% 1 12.12.2026 -
Reda Khadra Qarabag Actif 134 / 147 40% 2 08.12.2026 -
Jeon Jin-Woo Sheffield Wednesday Actif 138 / 118 40% 1 08.12.2026 -
Mario Pašalić Atalanta Actif 145 / 160 40% 1 06.12.2026 -
Nazar Voloshyn Dynamo Kyiv Actif 129 / 121 40% 1 03.12.2026 -
Sergej Milinković-Savić Al-Hilal Actif 151 / 154 40% 3 02.12.2026 -
Matthias Seidl Rapid Wien Actif 130 / 110 40% 1 02.12.2026 -
Malcom Al Jazira Actif 154 / 138 40% 3 29.11.2026 -
Bernard Tekpetey Ludogorets Actif 130 / 131 40% 3 28.11.2026 -
Theo Bongonda Al-Faisaly Actif 141 / 127 40% 2 22.11.2026 -
Georges-Kévin Nkoudou Al-Diriyah Actif 126 / 125 40% 1 16.11.2026 -
Christian Krasnodar Actif 135 / 140 40% 2 10.11.2026 -
Marko Grujić Levski Actif 124 / 136 40% 3 09.11.2026 -
Jens Petter Hauge Bodo/Glimt Actif 137 / 144 40% 3 09.11.2026 -
Maxim Glushenkov Zenit Actif 142 / 150 40% 1 01.11.2026 -
Joseph Paintsil LA Galaxy Actif 134 / 132 40% 3 31.10.2026 -
Kelvin Yeboah Minnesota United FC Actif 129 / 114 40% 1 31.10.2026 -
Sergio Reguilón Inter Miami CF Actif 136 / 120 40% 1 30.10.2026 -
Batxi Krasnodar Actif 127 / 121 40% 1 30.10.2026 -
Anders Dreyer San Diego Football Club Actif 132 / 141 40% 1 28.10.2026 -
Evander FC Cincinnati Actif 144 / 127 40% 1 28.10.2026 -
Ammar Ramadan DAC Dunajska Streda Actif 127 / 132 40% 1 27.10.2026 -
Marquinhos Spartak Moscow Actif 128 / 120 40% 1 25.10.2026 -
Telasco Segovia Inter Miami CF Actif 129 / 151 40% 1 24.10.2026 -
Ryan Gauld Vancouver Whitecaps Actif 131 / 122 40% 1 22.10.2026 -
Marcus Ingvartsen San Diego Football Club Actif 127 / 112 40% 1 22.10.2026 -
Allan Saint-Maximin Charlotte Football Club Actif 146 / 139 40% 1 19.10.2026 -
Elias Achouri San Diego Football Club Actif 137 / 123 40% 1 16.10.2026 -
Djordje Mihailović Toronto FC Actif 135 / 113 40% 1 12.10.2026 -
André Luiz Sporting Kansas City Actif 124 / 133 40% 1 12.10.2026 -
Veljko Birmančević Ferencvaros Actif 135 / 139 40% 1 10.10.2026 -
Martín Ojeda Orlando City Actif 136 / 124 40% 1 10.10.2026 -
Gabriel Pirani San Diego Football Club Actif 126 / 126 40% 1 05.10.2026 -
Ollie Watkins Al-Hilal Actif 156 / 154 40% 1 05.10.2026 -
Youssef En-Nesyri Al-Ittihad Actif 136 / 121 40% 1 24.08.2026 -
Maílson Al-Taawoun Actif 131 / 143 40% 1 11.08.2026 -
Jordan Beyer Burnley Actif 138 / 114 40% 1 02.08.2026 -
Chris Richards Crystal Palace Actif 141 / 131 40% 1 02.08.2026 -
Will Hughes Crystal Palace Actif 138 / 121 40% 1 01.08.2026 -
Yasin Ayari Brighton Actif 137 / 160 40% 1 01.08.2026 -